Airfield :
LOGIN :

Register | Disclaimer

   EN    FR    IT 

 










Legend :    VFR   Marginal VFR   IFR   Intensive IFR   Very Intensive IFR
Visi :
Ceiling :
>= 8 km
>= 3000ft
5 to 8 km
1000 to 3000 ft
1500m to 5 km
500 to 1000 ft
800 to 1500m
200 to 500 ft
< 800m
< 200 ft
Symbols :   Thunderstorms  Fog  Heavy snow  Heavy precipitations  Wind > 20 kt
SIGMETs :     Misc.  Thunderstorms  Icing  Turbulence  Mountain Waves  Volcanic Ashes







- Airport Elevation : 47 ft
- IATA code : BDS


LIBR - Casale Arpt. Brindisi

CURRENT METAR :
  • 241715Z /////KT 5000 BR NSC 14/10 Q1021 NOSIG

EXPIRED METARs :
  • 241645Z /////KT 5000 BR NSC 14/10 Q1021 NOSIG
  • 241615Z /////KT 5000 BR NSC 14/10 Q1022 NOSIG
  • 241545Z /////KT 5000 BR NSC 15/11 Q1022 NOSIG
  • 241515Z /////KT 5000 BR NSC 15/11 Q1022 NOSIG
  • 241445Z /////KT 5000 BR NSC 15/11 Q1022 NOSIG

TAF TAF LIBR
Valid from the 24 at 18:00 until the 25 at 18:00 UTC


241700Z 2418/2518 33006KT 5000 BR SCT012
BECMG 2418/2420 2500 BR SCT010
TEMPO 2421/2508 0600 FG SCT004
BECMG 2510/2512 6000 NSC
No reported NOTAMs for that airfield.



MET'MAP, your aeronautical weather chart ! - Copyright ORBIFLY December 2007 - Disclaimer

ORBIFLY MET'MAP TEAM :

Programming & Development : Alexandra Zaïnal
Concept & Development : Baudouin d'Aumeries
Co-Development & Prog : Marc-Olivier Méhu
Technical & hardware support : Manuel Goepfert

Contact : metmap@orbifly.com




SOURCES & CREDITS :

   NOAA